createdAt,value
2023-05-09T05:01:11.653Z,24.34
2023-05-09T05:02:11.501Z,24.55
2023-05-09T05:03:11.520Z,24.60
2023-05-09T05:04:11.570Z,24.63
2023-05-09T05:05:12.585Z,24.65
2023-05-09T05:06:11.657Z,24.66
2023-05-09T05:07:11.645Z,24.68
2023-05-09T05:08:11.670Z,24.68
2023-05-09T05:09:11.685Z,24.70
2023-05-09T05:10:11.709Z,24.70
2023-05-09T05:11:11.759Z,24.71
2023-05-09T05:12:11.833Z,24.72
2023-05-09T05:13:11.883Z,24.72
2023-05-09T05:14:11.900Z,24.73
2023-05-09T05:15:12.043Z,24.73
2023-05-09T05:16:12.065Z,24.73
2023-05-09T05:17:12.136Z,24.74
2023-05-09T05:18:12.088Z,24.74
2023-05-09T05:19:12.101Z,24.74
2023-05-09T05:20:12.153Z,24.74
2023-05-09T05:21:12.188Z,24.74
2023-05-09T05:22:12.293Z,24.75
2023-05-09T05:23:12.261Z,24.75
2023-05-09T05:24:12.280Z,24.75
2023-05-09T05:25:12.438Z,24.75
2023-05-09T05:26:12.306Z,24.76
2023-05-09T05:27:12.400Z,24.76
2023-05-09T05:28:12.436Z,24.75
2023-05-09T05:29:12.406Z,24.75
2023-05-09T05:30:12.463Z,24.76
2023-05-09T05:31:12.543Z,24.76
2023-05-09T05:32:12.499Z,24.76
2023-05-09T05:33:12.614Z,24.77
2023-05-09T05:34:12.584Z,24.77
2023-05-09T05:35:12.795Z,24.77
2023-05-09T05:36:12.615Z,24.77
2023-05-09T05:37:12.645Z,24.77
2023-05-09T05:38:12.629Z,24.77
2023-05-09T05:39:12.650Z,24.77
2023-05-09T05:40:12.893Z,24.77
2023-05-09T05:41:12.685Z,24.77
2023-05-09T05:42:12.726Z,24.77
2023-05-09T05:43:12.890Z,24.77
2023-05-09T05:44:12.772Z,24.78
2023-05-09T05:45:12.906Z,24.79
2023-05-09T05:46:12.899Z,24.79
2023-05-09T05:47:12.842Z,24.81
2023-05-09T05:48:12.845Z,24.82
2023-05-09T05:49:12.953Z,24.82
2023-05-09T07:40:12.657Z,23.95
2023-05-09T07:41:12.344Z,23.90
2023-05-09T07:42:12.331Z,23.86
2023-05-09T07:43:12.307Z,23.79
2023-05-09T07:44:12.319Z,23.79
2023-05-09T07:45:12.514Z,23.86
2023-05-09T07:46:12.347Z,23.93
2023-05-09T07:47:12.268Z,24.01
2023-05-09T07:48:12.347Z,24.09
2023-05-09T07:49:12.288Z,24.15
2023-05-09T07:50:12.268Z,24.23
2023-05-09T07:51:12.262Z,24.29
2023-05-09T07:52:12.246Z,24.37
2023-05-09T07:53:12.265Z,24.41
2023-05-09T07:54:12.216Z,24.46
2023-05-09T07:55:12.316Z,24.51
2023-05-09T07:56:12.328Z,24.55
2023-05-09T07:57:12.222Z,24.59
2023-05-09T07:58:12.225Z,24.64
2023-05-09T07:59:12.257Z,24.66
2023-05-09T08:00:12.184Z,24.67
2023-05-09T08:01:12.169Z,24.66
2023-05-09T08:02:12.211Z,24.67
2023-05-09T08:03:12.267Z,24.68
2023-05-09T08:04:12.241Z,24.67
2023-05-09T08:05:12.205Z,24.67
2023-05-09T08:06:12.200Z,24.68
2023-05-09T08:07:12.159Z,24.68
2023-05-09T08:08:12.150Z,24.70
2023-05-09T08:09:12.127Z,24.72
2023-05-09T08:10:12.125Z,24.75
2023-05-09T08:11:12.128Z,24.77
2023-05-09T08:12:12.262Z,24.79
2023-05-09T08:13:12.187Z,24.82
2023-05-09T08:14:12.802Z,24.84
2023-05-09T08:15:12.206Z,24.84
2023-05-09T08:16:12.152Z,24.85
2023-05-09T08:17:12.098Z,24.87
2023-05-09T08:18:12.044Z,24.88
2023-05-09T08:19:12.065Z,24.89
2023-05-09T08:20:12.043Z,24.89
2023-05-09T08:21:12.096Z,24.91
2023-05-09T08:22:12.043Z,24.93
2023-05-09T08:23:12.067Z,24.94
2023-05-09T08:24:12.036Z,24.95
2023-05-09T08:25:12.053Z,24.95
2023-05-09T08:26:11.996Z,24.97
2023-05-09T08:27:12.018Z,24.97
2023-05-09T08:28:12.153Z,24.98
2023-05-09T08:29:11.985Z,24.96
2023-05-09T08:30:11.966Z,25.00
2023-05-09T08:31:12.021Z,25.03
2023-05-09T08:32:12.026Z,25.05
2023-05-09T08:33:12.090Z,25.07
2023-05-09T08:34:11.980Z,25.10
2023-05-09T08:35:11.975Z,25.15
2023-05-09T08:36:11.933Z,25.19
2023-05-09T08:37:14.451Z,25.22
2023-05-09T08:38:11.963Z,25.25
2023-05-09T08:39:11.912Z,25.29
2023-05-09T08:40:11.960Z,25.32
2023-05-09T08:41:11.903Z,25.35
2023-05-09T08:42:11.934Z,25.38
2023-05-09T08:43:11.934Z,25.40
2023-05-09T08:44:12.034Z,25.42
2023-05-09T08:45:11.889Z,25.44
2023-05-09T08:46:11.928Z,25.46
2023-05-09T08:47:11.882Z,25.49
2023-05-09T08:48:11.882Z,25.50
2023-05-09T08:49:11.871Z,25.50
2023-05-09T08:50:12.055Z,25.50
2023-05-09T08:51:11.840Z,25.52
2023-05-09T08:52:11.855Z,25.54
2023-05-09T08:53:11.828Z,25.56
2023-05-09T08:54:11.808Z,25.56
2023-05-09T08:55:11.856Z,25.57
2023-05-09T08:56:11.825Z,25.57
2023-05-09T08:57:11.793Z,25.58
2023-05-09T08:58:11.811Z,25.60
2023-05-09T08:59:11.791Z,25.61
2023-05-09T09:00:11.887Z,25.63
2023-05-09T09:01:11.793Z,25.63
2023-05-09T09:02:11.839Z,25.65
2023-05-09T09:03:11.881Z,25.65
2023-05-09T09:04:11.747Z,25.65
2023-05-09T09:05:23.855Z,25.66
2023-05-09T09:06:12.727Z,25.64
2023-05-09T09:07:11.756Z,25.65
2023-05-09T09:08:11.737Z,25.65
2023-05-09T09:09:11.736Z,25.65
2023-05-09T09:10:11.709Z,25.65
2023-05-09T09:11:11.705Z,25.65
2023-05-09T09:12:11.708Z,25.65
2023-05-09T09:13:11.729Z,25.66
2023-05-09T09:14:11.659Z,25.65
2023-05-09T09:15:11.660Z,25.66
2023-05-09T09:16:11.766Z,25.66
2023-05-09T09:17:11.687Z,25.65
2023-05-09T09:18:11.734Z,25.63
2023-05-09T09:19:11.652Z,25.61
2023-05-09T09:20:11.667Z,25.62
2023-05-09T09:21:11.641Z,25.63
2023-05-09T09:22:11.622Z,25.63
2023-05-09T09:23:11.582Z,25.63
2023-05-09T09:24:11.607Z,25.63
2023-05-09T09:25:11.605Z,25.59
2023-05-09T09:26:11.583Z,25.59
2023-05-09T09:27:11.610Z,25.57
2023-05-09T09:28:11.576Z,25.56
2023-05-09T09:29:11.559Z,25.55
2023-05-09T09:30:11.565Z,25.56
2023-05-09T09:31:11.599Z,25.54
2023-05-09T09:32:11.774Z,25.50
2023-05-09T09:33:11.694Z,25.48
2023-05-09T09:34:11.699Z,25.47
2023-05-09T09:35:11.765Z,25.44
2023-05-09T09:36:11.821Z,25.43
2023-05-09T09:37:11.836Z,25.38
2023-05-09T09:38:11.894Z,25.32
2023-05-09T09:39:11.966Z,25.34
2023-05-09T09:40:12.282Z,25.36
2023-05-09T09:41:12.061Z,25.36
2023-05-09T09:42:12.104Z,25.34
2023-05-09T09:43:12.176Z,25.32
2023-05-09T09:44:12.216Z,25.28
2023-05-09T09:45:12.277Z,25.23
2023-05-09T09:46:12.374Z,25.23
2023-05-09T09:47:12.398Z,25.24
2023-05-09T09:48:12.597Z,25.24
2023-05-09T09:49:12.484Z,25.20
2023-05-09T09:50:12.705Z,25.16
2023-05-09T09:51:12.611Z,25.12
2023-05-09T09:52:12.669Z,25.07
2023-05-09T09:53:12.756Z,25.01
2023-05-09T09:54:12.680Z,24.95
2023-05-09T09:55:12.695Z,24.88
2023-05-09T09:56:12.700Z,24.87
2023-05-09T09:57:12.714Z,24.88
2023-05-09T09:58:12.746Z,24.90
2023-05-09T09:59:12.723Z,24.92
2023-05-09T10:00:12.890Z,24.93
2023-05-09T10:01:12.754Z,24.96
2023-05-09T10:02:12.746Z,24.99
2023-05-09T10:03:12.877Z,25.00
2023-05-09T10:04:12.841Z,25.03
2023-05-09T10:05:12.732Z,25.05
2023-05-09T10:06:12.750Z,25.05
2023-05-09T10:07:14.926Z,25.03
2023-05-09T10:08:12.807Z,25.01
2023-05-09T10:09:12.817Z,24.98
2023-05-09T10:10:13.252Z,24.98
2023-05-09T10:11:12.832Z,24.96
2023-05-09T10:12:12.797Z,24.92
2023-05-09T10:13:12.940Z,24.93
2023-05-09T10:14:12.885Z,24.96
2023-05-09T10:15:12.850Z,24.99
2023-05-09T10:16:13.122Z,25.03
2023-05-09T10:17:12.917Z,25.08
2023-05-09T10:18:12.983Z,25.13
2023-05-09T10:19:12.911Z,25.17
2023-05-09T10:20:13.414Z,25.21
2023-05-09T10:21:13.115Z,25.24
2023-05-09T10:22:13.117Z,25.26
2023-05-09T10:23:13.171Z,25.27
2023-05-09T10:24:13.253Z,25.28
2023-05-09T10:25:13.582Z,25.31
2023-05-09T10:26:13.375Z,25.27
2023-05-09T10:27:13.462Z,25.23
2023-05-09T10:28:13.480Z,25.19
2023-05-09T10:29:13.540Z,25.18
2023-05-09T10:30:13.549Z,25.15
2023-05-09T10:31:13.585Z,25.14
2023-05-09T10:32:13.584Z,25.15
2023-05-09T10:33:13.622Z,25.15
2023-05-09T10:34:13.647Z,25.14
2023-05-09T10:35:13.923Z,25.05
2023-05-09T10:36:13.828Z,25.01
2023-05-09T10:37:13.727Z,25.01
2023-05-09T10:38:13.741Z,25.03
2023-05-09T10:39:13.822Z,25.06
2023-05-09T10:40:13.762Z,25.04
2023-05-09T10:41:13.753Z,25.03
2023-05-09T10:42:13.757Z,25.01
2023-05-09T10:43:13.757Z,24.99
2023-05-09T10:44:13.772Z,25.01
2023-05-09T10:45:14.107Z,25.04
2023-05-09T10:46:13.813Z,25.05
2023-05-09T10:47:13.780Z,25.04
2023-05-09T10:48:13.822Z,25.00
2023-05-09T10:49:13.816Z,24.95
2023-05-09T10:50:13.834Z,24.98
2023-05-09T10:51:13.843Z,25.00
2023-05-09T10:52:13.923Z,25.04
2023-05-09T10:53:13.847Z,25.05
2023-05-09T10:54:13.860Z,25.09
2023-05-09T10:55:13.988Z,25.12
2023-05-09T10:56:13.903Z,25.15
2023-05-09T10:57:13.964Z,25.16
2023-05-09T10:58:13.994Z,25.19
2023-05-09T10:59:14.068Z,25.22
2023-05-09T11:00:14.135Z,25.24
2023-05-09T11:01:14.229Z,25.26
2023-05-09T11:02:14.231Z,25.27
2023-05-09T11:03:14.339Z,25.28
2023-05-09T11:04:14.514Z,25.27
2023-05-09T11:05:14.566Z,25.24
2023-05-09T11:06:14.478Z,25.24
2023-05-09T11:07:14.820Z,25.20
2023-05-09T11:08:14.678Z,25.19
2023-05-09T11:09:14.656Z,25.21
2023-05-09T11:10:14.686Z,25.24
2023-05-09T11:11:14.757Z,25.26
2023-05-09T11:12:14.829Z,25.26
2023-05-09T11:13:14.924Z,25.28
2023-05-09T11:14:14.921Z,25.29
2023-05-09T11:15:15.175Z,25.29
2023-05-09T11:16:15.078Z,25.29
2023-05-09T11:17:15.113Z,25.32
2023-05-09T11:18:15.306Z,25.34
2023-05-09T11:19:15.216Z,25.37
2023-05-09T11:20:15.332Z,25.40
2023-05-09T11:21:15.334Z,25.42
2023-05-09T11:22:15.377Z,25.46
2023-05-09T11:23:15.396Z,25.48
2023-05-09T11:24:15.521Z,25.51
2023-05-09T11:25:15.657Z,25.53
2023-05-09T11:26:15.510Z,25.54
2023-05-09T11:27:15.542Z,25.55
2023-05-09T11:28:15.546Z,25.58
2023-05-09T11:29:15.553Z,25.60
2023-05-09T11:30:15.652Z,25.63
2023-05-09T11:31:15.556Z,25.63
2023-05-09T11:32:15.841Z,25.65
2023-05-09T11:33:15.591Z,25.66
2023-05-09T11:34:15.582Z,25.68
2023-05-09T11:35:15.944Z,25.70
2023-05-09T11:36:15.638Z,25.71
2023-05-09T11:37:15.592Z,25.73
2023-05-09T11:38:15.605Z,25.75
2023-05-09T11:39:15.592Z,25.75
2023-05-09T11:40:15.749Z,25.76
2023-05-09T11:41:15.593Z,25.77
2023-05-09T11:42:15.590Z,25.76
2023-05-09T11:43:15.577Z,25.76
2023-05-09T11:44:15.603Z,25.75
2023-05-09T11:45:15.724Z,25.75
2023-05-09T11:46:15.630Z,25.77
2023-05-09T11:47:15.574Z,25.78
2023-05-09T11:48:15.581Z,25.78
2023-05-09T11:49:15.600Z,25.78
2023-05-09T11:50:15.638Z,25.80
2023-05-09T11:51:15.577Z,25.79
2023-05-09T11:52:15.599Z,25.81
2023-05-09T11:53:15.553Z,25.82
2023-05-09T11:54:15.638Z,25.83
2023-05-09T11:55:15.753Z,25.84
2023-05-09T11:56:15.656Z,25.85
2023-05-09T11:57:15.580Z,25.86
2023-05-09T11:58:15.597Z,25.86
2023-05-09T11:59:15.672Z,25.86
2023-05-09T12:00:15.787Z,25.87
2023-05-09T12:01:15.683Z,25.87
2023-05-09T12:02:15.720Z,25.88
2023-05-09T12:03:15.777Z,25.88
2023-05-09T12:04:15.729Z,25.88
2023-05-09T12:05:15.956Z,25.90
2023-05-09T12:06:15.688Z,25.89
2023-05-09T12:07:15.722Z,25.91
2023-05-09T12:08:15.744Z,25.92
2023-05-09T12:09:15.788Z,25.92
2023-05-09T12:10:15.858Z,25.90
2023-05-09T12:11:15.851Z,25.91
2023-05-09T12:12:15.940Z,25.91
2023-05-09T12:13:15.957Z,25.90
2023-05-09T12:14:15.899Z,25.89
2023-05-09T12:15:16.271Z,25.88
2023-05-09T12:16:15.972Z,25.88
2023-05-09T12:17:15.974Z,25.87
2023-05-09T12:18:15.956Z,25.86
2023-05-09T12:19:15.941Z,25.85
2023-05-09T12:20:16.008Z,25.84
2023-05-09T12:21:15.992Z,25.83
2023-05-09T12:22:15.939Z,25.82
2023-05-09T12:23:15.941Z,25.82
2023-05-09T12:24:15.912Z,25.80
2023-05-09T12:25:16.125Z,25.78
2023-05-09T12:26:15.951Z,25.78
2023-05-09T12:27:15.954Z,25.77
2023-05-09T12:28:16.036Z,25.76
2023-05-09T12:29:15.942Z,25.77
2023-05-09T12:30:16.009Z,25.76
2023-05-09T12:31:16.028Z,25.78
2023-05-09T12:32:15.987Z,25.78
2023-05-09T12:33:15.952Z,25.79
2023-05-09T12:34:15.969Z,25.79
2023-05-09T12:35:16.146Z,25.80
2023-05-09T12:36:15.949Z,25.81
2023-05-09T12:37:15.933Z,25.81
2023-05-09T12:38:15.969Z,25.82
2023-05-09T12:39:15.943Z,25.83
2023-05-09T12:40:15.997Z,25.83
2023-05-09T12:41:30.905Z,25.84
2023-05-09T12:42:16.973Z,25.84
2023-05-09T12:43:15.931Z,25.85
2023-05-09T12:44:16.041Z,25.86
2023-05-09T12:45:16.103Z,25.86
2023-05-09T12:46:15.960Z,25.87
2023-05-09T12:47:15.968Z,25.87
2023-05-09T12:48:15.909Z,25.87
2023-05-09T12:49:15.916Z,25.88
2023-05-09T12:50:15.928Z,25.89
2023-05-09T12:51:15.887Z,25.89
2023-05-09T12:52:15.900Z,25.90
2023-05-09T12:53:15.903Z,25.91
2023-05-09T12:54:15.876Z,25.91
2023-05-09T12:55:16.121Z,25.92
2023-05-09T12:56:15.874Z,25.92
2023-05-09T12:57:15.859Z,25.92
2023-05-09T12:58:15.846Z,25.94
2023-05-09T12:59:15.835Z,25.94
2023-05-09T13:00:15.877Z,25.95
2023-05-09T13:01:16.022Z,25.95
2023-05-09T13:02:16.072Z,25.94
2023-05-09T13:03:16.106Z,25.94
2023-05-09T13:04:16.118Z,25.93
2023-05-09T13:05:16.433Z,25.94
2023-05-09T13:06:16.261Z,25.93
2023-05-09T13:07:16.295Z,25.94
2023-05-09T13:08:16.346Z,25.94
2023-05-09T13:09:16.398Z,25.95
2023-05-09T13:10:16.435Z,25.95
2023-05-09T13:11:17.285Z,25.96
2023-05-09T13:12:16.557Z,25.97
2023-05-09T13:13:16.660Z,25.96
2023-05-09T13:14:16.667Z,25.96
2023-05-09T13:15:17.220Z,25.96
2023-05-09T13:16:17.979Z,25.96
2023-05-09T13:17:16.896Z,25.98
2023-05-09T13:18:16.925Z,25.98
2023-05-09T13:19:16.981Z,25.97
2023-05-09T13:20:17.306Z,25.99
2023-05-09T13:21:17.110Z,26.00
2023-05-09T13:22:17.156Z,26.00
2023-05-09T13:23:17.231Z,26.01
2023-05-09T13:24:17.311Z,25.99
2023-05-09T13:25:17.363Z,26.00
2023-05-09T13:26:17.442Z,26.00
2023-05-09T13:27:17.495Z,26.01
2023-05-09T13:28:17.554Z,26.01
2023-05-09T13:29:17.628Z,26.01
2023-05-09T13:30:18.160Z,26.02
2023-05-09T13:31:17.872Z,26.02
2023-05-09T13:32:17.893Z,26.03
2023-05-09T13:33:25.886Z,26.03
2023-05-09T13:34:18.858Z,26.03
2023-05-09T13:35:17.907Z,26.03
2023-05-09T13:36:17.858Z,26.04
2023-05-09T13:37:17.843Z,26.06
2023-05-09T13:38:17.843Z,26.07
2023-05-09T13:39:17.825Z,26.07
2023-05-09T13:40:17.932Z,26.08
2023-05-09T13:41:17.834Z,26.08
2023-05-09T13:42:19.172Z,26.10
2023-05-09T13:43:17.911Z,26.11
2023-05-09T13:44:17.924Z,26.12
2023-05-09T13:45:17.969Z,26.12
2023-05-09T13:46:18.114Z,26.14
2023-05-09T13:47:18.086Z,26.15
2023-05-09T13:48:18.263Z,26.16
2023-05-09T13:49:18.211Z,26.16
2023-05-09T13:50:18.559Z,26.17
2023-05-09T13:51:18.297Z,26.18
2023-05-09T13:52:18.377Z,26.17
2023-05-09T13:53:18.408Z,26.15
2023-05-09T13:54:18.471Z,26.16
2023-05-09T13:55:18.557Z,26.18
2023-05-09T13:56:18.573Z,26.19
2023-05-09T13:57:18.628Z,26.20
2023-05-09T13:58:18.683Z,26.21
2023-05-09T13:59:18.766Z,26.22
2023-05-09T14:00:18.986Z,26.22
2023-05-09T14:01:18.952Z,26.22
2023-05-09T14:02:18.930Z,26.22
2023-05-09T14:03:19.015Z,26.22
2023-05-09T14:04:19.000Z,26.21
2023-05-09T14:05:19.029Z,26.20
2023-05-09T14:06:19.128Z,26.19
2023-05-09T14:07:19.158Z,26.19
2023-05-09T14:08:19.225Z,26.19
2023-05-09T14:09:19.273Z,26.18
2023-05-09T14:10:19.492Z,26.17
2023-05-09T14:11:19.392Z,26.17
2023-05-09T14:12:19.407Z,26.17
2023-05-09T14:13:19.549Z,26.16
2023-05-09T14:14:19.519Z,26.17
2023-05-09T14:15:19.572Z,26.18
2023-05-09T14:16:19.668Z,26.20
2023-05-09T14:17:19.724Z,26.23
2023-05-09T14:18:21.138Z,26.26
2023-05-09T14:19:19.774Z,26.29
2023-05-09T14:20:19.954Z,26.32
2023-05-09T14:21:19.865Z,26.33
2023-05-09T14:22:20.023Z,26.36
2023-05-09T14:23:19.975Z,26.38
2023-05-09T14:24:19.984Z,26.40
2023-05-09T14:25:20.050Z,26.42
2023-05-09T14:26:20.094Z,26.43
2023-05-09T14:27:20.117Z,26.45
2023-05-09T14:28:20.170Z,26.46
2023-05-09T14:29:20.190Z,26.48
2023-05-09T14:30:20.266Z,26.50
2023-05-09T14:31:20.294Z,26.51
2023-05-09T14:32:20.275Z,26.51
2023-05-09T14:33:20.304Z,26.53
2023-05-09T14:34:20.350Z,26.54
2023-05-09T14:35:20.413Z,26.54
2023-05-09T14:36:20.495Z,26.56
2023-05-09T14:37:20.427Z,26.58
2023-05-09T14:38:20.434Z,26.59
2023-05-09T14:39:20.429Z,26.59
2023-05-09T14:40:20.519Z,26.60
2023-05-09T14:41:21.551Z,26.61
2023-05-09T14:42:20.502Z,26.62
2023-05-09T14:43:20.516Z,26.63
2023-05-09T14:44:20.520Z,26.64
2023-05-09T14:45:20.604Z,26.65
2023-05-09T14:46:20.598Z,26.66
2023-05-09T14:47:20.584Z,26.67
2023-05-09T14:48:20.565Z,26.68
2023-05-09T14:49:20.591Z,26.68
2023-05-09T14:50:20.559Z,26.68
2023-05-09T14:51:20.589Z,26.69
2023-05-09T14:52:20.684Z,26.70
2023-05-09T14:53:20.574Z,26.71
2023-05-09T14:54:20.612Z,26.71
2023-05-09T14:55:20.605Z,26.71
2023-05-09T14:56:20.592Z,26.72
2023-05-09T14:57:20.613Z,26.72
2023-05-09T14:58:20.632Z,26.72
2023-05-09T14:59:20.637Z,26.73
2023-05-09T15:00:22.302Z,26.74
2023-05-09T15:01:20.613Z,26.74
2023-05-09T15:02:20.629Z,26.75
2023-05-09T15:03:20.627Z,26.75
2023-05-09T15:04:20.652Z,26.75
2023-05-09T15:05:20.679Z,26.75
2023-05-09T15:06:20.625Z,26.76
2023-05-09T15:07:20.647Z,26.76
2023-05-09T15:08:20.732Z,26.77
2023-05-09T15:09:20.684Z,26.77
2023-05-09T15:10:20.656Z,26.78
2023-05-09T15:11:20.640Z,26.78
2023-05-09T15:12:20.690Z,26.79
2023-05-09T15:13:20.773Z,26.79
2023-05-09T15:14:20.676Z,26.79
2023-05-09T15:15:20.658Z,26.78
2023-05-09T15:16:20.677Z,26.80
2023-05-09T15:17:20.639Z,26.81
2023-05-09T15:18:20.645Z,26.80
2023-05-09T15:19:20.654Z,26.80
2023-05-09T15:20:20.645Z,26.81
2023-05-09T15:21:20.654Z,26.81
2023-05-09T15:22:20.619Z,26.81
2023-05-09T15:23:20.685Z,26.81
2023-05-09T15:24:20.706Z,26.82
2023-05-09T15:25:20.632Z,26.82
2023-05-09T15:26:20.621Z,26.82
2023-05-09T15:27:20.616Z,26.82
2023-05-09T15:28:20.605Z,26.83
2023-05-09T15:29:20.625Z,26.83
2023-05-09T15:30:20.585Z,26.84
2023-05-09T15:31:20.669Z,26.83
2023-05-09T15:32:20.612Z,26.84
2023-05-09T15:33:20.617Z,26.84
2023-05-09T15:34:20.577Z,26.85
2023-05-09T15:35:20.607Z,26.84
2023-05-09T15:36:20.571Z,26.84
2023-05-09T15:37:20.583Z,26.83
2023-05-09T15:38:20.594Z,26.83
2023-05-09T15:39:20.610Z,26.83
2023-05-09T15:40:20.661Z,26.83
2023-05-09T15:41:20.565Z,26.83
2023-05-09T15:42:20.579Z,26.83
2023-05-09T15:43:20.556Z,26.82
2023-05-09T15:44:20.557Z,26.82
2023-05-09T15:45:20.569Z,26.81
2023-05-09T15:46:20.642Z,26.82
2023-05-09T15:47:20.634Z,26.81
2023-05-09T15:48:20.586Z,26.82
2023-05-09T15:49:20.586Z,26.82
2023-05-09T15:50:20.606Z,26.82
2023-05-09T15:51:20.597Z,26.82
2023-05-09T15:52:20.582Z,26.81
2023-05-09T15:53:20.626Z,26.81
2023-05-09T15:54:20.612Z,26.81
2023-05-09T15:55:20.694Z,26.80
2023-05-09T15:56:20.720Z,26.81
2023-05-09T15:57:20.614Z,26.81
2023-05-09T15:58:20.633Z,26.81
2023-05-09T15:59:20.629Z,26.80
2023-05-09T16:00:20.632Z,26.81
2023-05-09T16:01:20.689Z,26.80
2023-05-09T16:02:20.668Z,26.79
2023-05-09T16:03:20.775Z,26.79
2023-05-09T16:04:20.665Z,26.80
2023-05-09T16:05:20.684Z,26.79
2023-05-09T16:06:20.656Z,26.79
2023-05-09T16:07:20.892Z,26.78
2023-05-09T16:08:20.665Z,26.78
2023-05-09T16:09:20.685Z,26.77
2023-05-09T16:10:20.640Z,26.77
2023-05-09T16:11:20.663Z,26.77
2023-05-09T16:12:20.753Z,26.76
2023-05-09T16:13:20.689Z,26.76
2023-05-09T16:14:20.713Z,26.75
2023-05-09T16:15:20.669Z,26.76
2023-05-09T16:16:20.720Z,26.76
2023-05-09T16:17:20.680Z,26.75
2023-05-09T16:18:20.704Z,26.75
2023-05-09T16:19:20.701Z,26.74
2023-05-09T16:20:20.686Z,26.74
2023-05-09T16:21:20.732Z,26.75
2023-05-09T16:22:20.694Z,26.74
2023-05-09T16:23:20.738Z,26.74
2023-05-09T16:24:20.710Z,26.73
2023-05-09T16:25:20.698Z,26.74
2023-05-09T16:26:20.749Z,26.74
2023-05-09T16:27:20.727Z,26.73
2023-05-09T16:28:20.808Z,26.72
2023-05-09T16:29:20.759Z,26.72
2023-05-09T16:30:20.745Z,26.72
2023-05-09T16:31:20.822Z,26.73
2023-05-09T16:32:20.768Z,26.72
2023-05-09T16:33:20.791Z,26.71
2023-05-09T16:34:20.768Z,26.71
2023-05-09T16:35:20.802Z,26.72
2023-05-09T16:36:20.832Z,26.71
2023-05-09T16:37:20.847Z,26.71
2023-05-09T16:38:20.829Z,26.71
2023-05-09T16:39:20.832Z,26.70
2023-05-09T16:40:20.826Z,26.70
2023-05-09T16:41:20.844Z,26.70
2023-05-09T16:42:20.873Z,26.69
2023-05-09T16:43:20.863Z,26.69
2023-05-09T16:44:20.980Z,26.69
2023-05-09T16:45:20.958Z,26.69
2023-05-09T16:46:20.950Z,26.69
2023-05-09T16:47:20.929Z,26.69
2023-05-09T16:48:20.914Z,26.68
2023-05-09T16:49:20.933Z,26.68
2023-05-09T16:50:20.927Z,26.68
2023-05-09T16:51:20.995Z,26.67
2023-05-09T16:52:21.006Z,26.67
2023-05-09T16:53:20.989Z,26.67
2023-05-09T16:54:21.013Z,26.66
2023-05-09T16:55:21.027Z,26.66
2023-05-09T16:56:21.026Z,26.66
2023-05-09T16:57:21.030Z,26.67
2023-05-09T16:58:21.119Z,26.66
2023-05-09T16:59:21.087Z,26.66
2023-05-09T17:00:21.091Z,26.66
